createdAt,value
2023-10-09T00:01:39.022Z,99161.56
2023-10-09T00:04:23.952Z,99160.06
2023-10-09T00:07:08.899Z,99172.16
2023-10-09T00:09:55.581Z,99172.03
2023-10-09T00:12:44.459Z,99166.00
2023-10-09T00:15:33.517Z,99173.44
2023-10-09T00:18:23.876Z,99175.63
2023-10-09T00:21:15.993Z,99163.47
2023-10-09T00:24:04.114Z,99167.25
2023-10-09T00:26:49.776Z,99173.53
2023-10-09T00:29:35.310Z,99165.09
2023-10-09T00:32:23.276Z,99163.31
2023-10-09T00:35:26.673Z,99166.69
2023-10-09T00:38:20.458Z,99174.78
2023-10-09T00:41:05.382Z,99179.31
2023-10-09T00:43:50.239Z,99182.47
2023-10-09T00:46:35.601Z,99176.22
2023-10-09T00:49:23.079Z,99181.31
2023-10-09T00:52:18.380Z,99189.34
2023-10-09T00:55:24.507Z,99177.19
2023-10-09T00:58:15.229Z,99193.50
2023-10-09T01:01:00.183Z,99195.06
2023-10-09T01:03:45.791Z,99190.19
2023-10-09T01:06:30.956Z,99199.56
2023-10-09T01:09:20.767Z,99199.03
2023-10-09T01:12:05.997Z,99209.22
2023-10-09T01:14:55.993Z,99200.97
2023-10-09T01:17:45.858Z,99209.81
2023-10-09T01:20:31.393Z,99212.97
2023-10-09T01:23:16.231Z,99212.78
2023-10-09T01:26:00.731Z,99213.78
2023-10-09T01:28:46.553Z,99215.31
2023-10-09T01:31:34.383Z,99222.44
2023-10-09T01:34:24.459Z,99222.06
2023-10-09T01:37:19.042Z,99223.19
2023-10-09T01:40:30.411Z,99225.75
2023-10-09T01:43:19.443Z,99230.47
2023-10-09T01:46:05.346Z,99227.31
2023-10-09T01:48:50.512Z,99224.78
2023-10-09T01:51:36.911Z,99222.97
2023-10-09T01:54:42.192Z,99233.53
2023-10-09T01:57:30.452Z,99229.16
2023-10-09T02:01:07.298Z,99234.63
2023-10-09T02:03:52.585Z,99229.47
2023-10-09T02:06:38.364Z,99240.00
2023-10-09T02:09:30.698Z,99229.91
2023-10-09T02:12:15.848Z,99235.94
2023-10-09T02:15:06.966Z,99237.81
2023-10-09T02:18:01.357Z,99237.78
2023-10-09T02:20:48.496Z,99245.13
2023-10-09T02:23:44.775Z,99246.63
2023-10-09T02:26:49.428Z,99255.88
2023-10-09T02:29:35.734Z,99253.00
2023-10-09T02:32:26.276Z,99249.38
2023-10-09T02:35:40.777Z,99255.44
2023-10-09T02:38:28.083Z,99248.91
2023-10-09T02:41:12.817Z,99252.75
2023-10-09T02:44:10.879Z,99260.16
2023-10-09T02:46:58.204Z,99258.72
2023-10-09T02:49:43.524Z,99260.63
2023-10-09T02:52:33.842Z,99258.41
2023-10-09T02:55:26.976Z,99255.00
2023-10-09T02:58:21.271Z,99257.09
2023-10-09T03:01:13.737Z,99267.03
2023-10-09T03:04:02.938Z,99269.25
2023-10-09T03:06:51.435Z,99265.19
2023-10-09T03:09:36.428Z,99277.94
2023-10-09T03:12:27.031Z,99274.88
2023-10-09T03:15:11.845Z,99274.97
2023-10-09T03:17:56.567Z,99278.03
2023-10-09T03:20:41.603Z,99283.56
2023-10-09T03:23:26.546Z,99280.59
2023-10-09T03:26:21.214Z,99285.41
2023-10-09T03:29:10.516Z,99287.00
2023-10-09T03:31:57.076Z,99282.00
2023-10-09T03:34:42.672Z,99290.00
2023-10-09T03:37:36.214Z,99289.59
2023-10-09T03:40:22.318Z,99293.69
2023-10-09T03:43:06.692Z,99293.09
2023-10-09T03:45:54.618Z,99300.28
2023-10-09T03:48:39.453Z,99292.91
2023-10-09T03:51:26.594Z,99299.59
2023-10-09T03:54:13.939Z,99295.78
2023-10-09T03:56:59.453Z,99305.81
2023-10-09T03:59:47.538Z,99306.78
2023-10-09T04:02:32.410Z,99307.84
2023-10-09T04:05:18.169Z,99311.53
2023-10-09T04:08:12.470Z,99302.22
2023-10-09T04:11:04.579Z,99301.22
2023-10-09T04:13:50.252Z,99308.94
2023-10-09T04:16:35.834Z,99311.22
2023-10-09T04:19:22.589Z,99304.03
2023-10-09T04:22:09.841Z,99312.13
2023-10-09T04:24:54.340Z,99311.69
2023-10-09T04:27:39.526Z,99306.06
2023-10-09T04:30:26.497Z,99312.66
2023-10-09T04:33:25.759Z,99308.97
2023-10-09T04:36:19.731Z,99316.06
2023-10-09T04:39:04.929Z,99317.03
2023-10-09T04:41:49.874Z,99312.72
2023-10-09T04:44:37.379Z,99320.22
2023-10-09T04:47:26.055Z,99317.66
2023-10-09T04:50:12.177Z,99321.28
2023-10-09T04:53:05.430Z,99310.72
2023-10-09T04:55:57.642Z,99316.34
2023-10-09T04:58:47.001Z,99306.84
2023-10-09T05:01:44.231Z,99313.50
2023-10-09T05:04:37.803Z,99322.63
2023-10-09T05:07:45.302Z,99325.88
2023-10-09T05:10:32.654Z,99339.72
2023-10-09T05:13:36.741Z,99337.50
2023-10-09T05:16:29.198Z,99338.97
2023-10-09T05:19:33.972Z,99333.03
2023-10-09T05:22:36.731Z,99329.63
2023-10-09T05:25:46.324Z,99337.16
2023-10-09T05:29:19.735Z,99322.84
2023-10-09T05:32:24.625Z,99344.78
2023-10-09T05:35:30.495Z,99345.13
2023-10-09T05:38:23.896Z,99331.63
2023-10-09T05:41:27.480Z,99340.97
2023-10-09T05:44:38.574Z,99349.88
2023-10-09T05:47:29.689Z,99349.91
2023-10-09T05:50:17.230Z,99340.50
2023-10-09T05:53:07.088Z,99355.97
2023-10-09T05:56:11.262Z,99358.34
2023-10-09T05:59:25.421Z,99365.88
2023-10-09T06:02:33.358Z,99357.41
2023-10-09T06:10:00.644Z,99362.03
2023-10-09T06:17:00.489Z,99361.28
2023-10-09T06:19:45.322Z,99369.00
2023-10-09T06:23:26.335Z,99382.53
2023-10-09T06:26:24.405Z,99395.06
2023-10-09T06:29:15.139Z,99400.19
2023-10-09T06:32:16.971Z,99400.41
2023-10-09T06:35:21.609Z,99410.25
2023-10-09T06:38:34.142Z,99397.66
2023-10-09T06:41:35.178Z,99401.63
2023-10-09T06:44:39.870Z,99402.81
2023-10-09T06:47:26.769Z,99404.16
2023-10-09T06:50:21.170Z,99411.06
2023-10-09T06:53:11.929Z,99408.03
2023-10-09T06:56:05.981Z,99405.63
2023-10-09T06:58:55.508Z,99407.38
2023-10-09T07:01:44.243Z,99422.78
2023-10-09T07:04:31.929Z,99423.59
2023-10-09T07:07:21.371Z,99418.25
2023-10-09T07:10:40.546Z,99395.88
2023-10-09T07:13:28.553Z,99413.22
2023-10-09T07:16:29.413Z,99421.22
2023-10-09T07:19:47.359Z,99422.44
2023-10-09T07:22:47.246Z,99423.00
2023-10-09T07:25:51.141Z,99422.13
2023-10-09T07:28:44.180Z,99414.31
2023-10-09T07:31:40.182Z,99389.31
2023-10-09T07:34:40.690Z,99405.81
2023-10-09T07:37:35.775Z,99407.22
2023-10-09T07:40:58.476Z,99409.63
2023-10-09T07:44:30.915Z,99396.72
2023-10-09T07:47:20.150Z,99393.97
2023-10-09T07:50:11.606Z,99408.38
2023-10-09T07:53:48.055Z,99405.66
2023-10-09T07:57:37.881Z,99424.53
2023-10-09T08:01:00.942Z,99420.03
2023-10-09T08:03:58.635Z,99423.78
2023-10-09T08:07:02.535Z,99427.72
2023-10-09T08:10:19.547Z,99425.81
2023-10-09T08:13:23.264Z,99428.13
2023-10-09T08:16:18.966Z,99424.69
2023-10-09T08:19:23.800Z,99420.31
2023-10-09T08:22:37.686Z,99409.25
2023-10-09T08:25:32.579Z,99402.28
2023-10-09T08:28:35.904Z,99403.28
2023-10-09T08:31:45.529Z,99409.34
2023-10-09T08:35:01.105Z,99394.78
2023-10-09T08:38:10.958Z,99396.34
2023-10-09T08:41:23.239Z,99386.25
2023-10-09T08:44:12.830Z,99385.91
2023-10-09T08:47:01.908Z,99376.06
2023-10-09T08:49:48.993Z,99372.16
2023-10-09T08:52:35.986Z,99373.28
2023-10-09T08:55:21.239Z,99373.63
2023-10-09T08:58:13.537Z,99370.94
2023-10-09T09:01:01.212Z,99369.81
2023-10-09T09:03:47.804Z,99362.75
2023-10-09T09:06:41.537Z,99379.44
2023-10-09T09:10:19.946Z,99372.81
2023-10-09T09:13:21.844Z,99362.78
2023-10-09T09:16:22.529Z,99354.78
2023-10-09T09:19:11.293Z,99358.16
2023-10-09T09:22:11.870Z,99369.38
2023-10-09T09:25:09.770Z,99364.06
2023-10-09T09:27:57.675Z,99374.03
2023-10-09T09:30:42.866Z,99368.16
2023-10-09T09:33:33.481Z,99364.34
2023-10-09T09:36:34.306Z,99367.31
2023-10-09T09:39:56.223Z,99365.97
2023-10-09T09:42:49.731Z,99354.41
2023-10-09T09:46:10.580Z,99373.97
2023-10-09T09:49:17.488Z,99373.72
2023-10-09T09:52:10.390Z,99356.94
2023-10-09T09:54:55.168Z,99362.56
2023-10-09T09:57:41.576Z,99369.47
2023-10-09T10:00:40.932Z,99370.34
2023-10-09T10:03:48.664Z,99364.59
2023-10-09T10:06:39.319Z,99353.81
2023-10-09T10:09:45.963Z,99364.09
2023-10-09T10:12:59.013Z,99368.84
2023-10-09T10:16:02.961Z,99377.50
2023-10-09T10:19:13.117Z,99369.56
2023-10-09T10:23:11.795Z,99367.13
2023-10-09T10:26:31.247Z,99342.97
2023-10-09T10:29:37.609Z,99356.75
2023-10-09T10:32:24.217Z,99362.91
2023-10-09T10:35:12.130Z,99335.41
2023-10-09T10:38:22.209Z,99324.81
2023-10-09T10:41:14.071Z,99334.44
2023-10-09T10:44:01.524Z,99332.53
2023-10-09T10:47:32.893Z,99337.31
2023-10-09T10:50:30.580Z,99332.44
2023-10-09T10:53:20.047Z,99337.25
2023-10-09T10:56:17.892Z,99331.94
2023-10-09T11:07:59.341Z,99313.41
2023-10-09T11:11:16.724Z,99317.25
2023-10-09T11:18:57.653Z,99323.72
2023-10-09T11:21:43.248Z,99322.56
2023-10-09T11:24:33.901Z,99327.00
2023-10-09T11:27:25.147Z,99324.53
2023-10-09T11:30:22.095Z,99329.41
2023-10-09T11:33:14.631Z,99327.25
2023-10-09T11:35:59.800Z,99332.03
2023-10-09T11:38:45.981Z,99319.63
2023-10-09T11:41:36.116Z,99303.56
2023-10-09T11:44:39.799Z,99302.91
2023-10-09T11:47:35.122Z,99300.97
2023-10-09T11:50:21.274Z,99307.66
2023-10-09T11:53:10.090Z,99292.63
2023-10-09T11:55:55.150Z,99284.63
2023-10-09T11:58:41.105Z,99280.66
2023-10-09T12:01:27.148Z,99278.19
2023-10-09T12:04:13.729Z,99269.28
2023-10-09T12:07:06.801Z,99281.59
2023-10-09T12:09:56.801Z,99273.81
2023-10-09T12:12:46.951Z,99265.91
2023-10-09T12:15:38.907Z,99266.53
2023-10-09T12:18:24.736Z,99265.50
2023-10-09T12:21:16.188Z,99259.44
2023-10-09T12:24:02.675Z,99261.38
2023-10-09T12:26:58.703Z,99252.63
2023-10-09T12:29:45.554Z,99253.16
2023-10-09T12:32:35.834Z,99254.34
2023-10-09T12:35:20.917Z,99232.22
2023-10-09T12:38:10.850Z,99241.44
2023-10-09T12:41:23.294Z,99236.19
2023-10-09T12:44:15.375Z,99225.88
2023-10-09T12:47:05.100Z,99230.28
2023-10-09T12:49:50.348Z,99224.13
2023-10-09T12:52:37.548Z,99214.03
2023-10-09T12:55:22.478Z,99217.44
2023-10-09T12:58:16.142Z,99210.75
2023-10-09T13:01:09.880Z,99210.88
2023-10-09T13:03:54.892Z,99213.88
2023-10-09T13:06:44.312Z,99200.22
2023-10-09T13:09:44.630Z,99202.56
2023-10-09T13:12:29.656Z,99201.97
2023-10-09T13:15:14.389Z,99200.44
2023-10-09T13:17:59.540Z,99200.56
2023-10-09T13:20:46.096Z,99195.53
2023-10-09T13:23:40.638Z,99197.84
2023-10-09T13:26:34.772Z,99197.66
2023-10-09T13:29:26.205Z,99191.81
2023-10-09T13:32:15.196Z,99185.91
2023-10-09T13:35:03.398Z,99190.47
2023-10-09T13:37:54.549Z,99188.50
2023-10-09T13:40:39.426Z,99187.59
2023-10-09T13:43:26.298Z,99183.53
2023-10-09T13:46:17.985Z,99182.97
2023-10-09T13:49:02.990Z,99189.34
2023-10-09T13:51:48.074Z,99195.56
2023-10-09T13:54:32.907Z,99188.63
2023-10-09T13:57:17.975Z,99192.53
2023-10-09T14:00:04.767Z,99187.63
2023-10-09T14:02:51.980Z,99194.47
2023-10-09T14:05:37.899Z,99195.94
2023-10-09T14:08:23.431Z,99198.94
2023-10-09T14:11:13.868Z,99197.72
2023-10-09T14:14:11.297Z,99200.38
2023-10-09T14:16:57.884Z,99191.88
2023-10-09T14:19:50.447Z,99192.72
2023-10-09T14:22:38.690Z,99190.09
2023-10-09T14:25:24.099Z,99194.44
2023-10-09T14:28:09.760Z,99189.16
2023-10-09T14:30:59.678Z,99187.09
2023-10-09T14:33:51.842Z,99205.75
2023-10-09T14:36:37.621Z,99196.13
2023-10-09T14:39:27.049Z,99202.25
2023-10-09T14:42:12.139Z,99197.19
2023-10-09T14:44:57.382Z,99191.56
2023-10-09T14:47:42.996Z,99196.78
2023-10-09T14:50:27.933Z,99194.28
2023-10-09T14:53:13.548Z,99192.66
2023-10-09T14:55:59.994Z,99201.56
2023-10-09T14:58:47.214Z,99187.00
2023-10-09T15:01:32.422Z,99192.00
2023-10-09T15:04:18.086Z,99192.81
2023-10-09T15:07:07.243Z,99195.31
2023-10-09T15:09:52.601Z,99194.75
2023-10-09T15:12:43.070Z,99197.13
2023-10-09T15:15:31.453Z,99201.56
2023-10-09T15:18:19.544Z,99205.19
2023-10-09T15:21:06.559Z,99204.09
2023-10-09T15:23:54.936Z,99218.19
2023-10-09T15:26:40.447Z,99218.44
2023-10-09T15:29:30.970Z,99224.25
2023-10-09T15:32:16.047Z,99215.81
2023-10-09T15:35:03.987Z,99218.03
2023-10-09T15:37:52.804Z,99218.09
2023-10-09T15:40:39.546Z,99209.88
2023-10-09T15:43:25.621Z,99216.03
2023-10-09T15:46:16.999Z,99225.72
2023-10-09T15:49:02.457Z,99220.84
2023-10-09T15:51:47.690Z,99220.09
2023-10-09T15:54:32.345Z,99224.59
2023-10-09T15:57:17.621Z,99224.03
2023-10-09T16:00:10.021Z,99228.19
2023-10-09T16:02:57.380Z,99226.25
2023-10-09T16:05:42.500Z,99226.84
2023-10-09T16:08:28.509Z,99234.34
2023-10-09T16:11:18.862Z,99231.63
2023-10-09T16:14:09.701Z,99224.72
2023-10-09T16:16:55.970Z,99226.69
2023-10-09T16:19:41.745Z,99228.47
2023-10-09T16:22:28.628Z,99228.69
2023-10-09T16:25:14.042Z,99233.06
2023-10-09T16:27:59.318Z,99236.22
2023-10-09T16:30:43.843Z,99221.66
2023-10-09T16:33:29.525Z,99229.34
2023-10-09T16:36:16.074Z,99231.28
2023-10-09T16:39:00.594Z,99232.44
2023-10-09T16:41:46.577Z,99235.59
2023-10-09T16:44:34.752Z,99224.38
2023-10-09T16:47:19.920Z,99219.81
2023-10-09T16:50:11.902Z,99224.16
2023-10-09T16:52:57.053Z,99220.59
2023-10-09T16:55:42.207Z,99214.88
2023-10-09T16:58:26.945Z,99222.34
2023-10-09T17:01:12.712Z,99223.88
2023-10-09T17:03:58.362Z,99219.75
2023-10-09T17:06:51.762Z,99208.53
2023-10-09T17:09:36.513Z,99222.63
2023-10-09T17:12:21.832Z,99222.97
2023-10-09T17:15:07.799Z,99212.28
2023-10-09T17:17:52.448Z,99216.97
2023-10-09T17:20:41.225Z,99221.59
2023-10-09T17:23:26.143Z,99212.16
2023-10-09T17:26:15.259Z,99208.97
2023-10-09T17:29:00.474Z,99208.97
2023-10-09T17:31:45.751Z,99207.72
2023-10-09T17:34:33.785Z,99204.72
2023-10-09T17:37:18.760Z,99213.88
2023-10-09T17:40:07.080Z,99202.44
2023-10-09T17:42:53.648Z,99197.13
2023-10-09T17:45:41.561Z,99205.53
2023-10-09T17:48:26.278Z,99209.78
2023-10-09T17:51:11.388Z,99209.53
2023-10-09T17:53:56.249Z,99217.50
2023-10-09T17:56:41.087Z,99220.63
2023-10-09T17:59:27.801Z,99221.78
2023-10-09T18:02:13.034Z,99220.31
2023-10-09T18:04:58.658Z,99216.13
2023-10-09T18:07:44.902Z,99233.09
2023-10-09T18:10:34.061Z,99239.09
2023-10-09T18:13:19.609Z,99233.31
2023-10-09T18:16:10.306Z,99228.78
2023-10-09T18:18:56.623Z,99238.09
2023-10-09T18:21:41.730Z,99237.84
2023-10-09T18:24:26.666Z,99239.59
2023-10-09T18:27:17.218Z,99235.03
2023-10-09T18:30:01.715Z,99230.22
2023-10-09T18:32:47.106Z,99235.75
2023-10-09T18:35:33.795Z,99222.06
2023-10-09T18:38:18.882Z,99226.31
2023-10-09T18:41:06.471Z,99223.59
2023-10-09T18:43:53.633Z,99234.53
2023-10-09T18:46:38.485Z,99232.25
2023-10-09T18:49:23.416Z,99234.06
2023-10-09T18:52:10.766Z,99230.03
2023-10-09T18:54:56.630Z,99238.06
2023-10-09T18:57:43.429Z,99230.41
2023-10-09T19:00:31.183Z,99224.47
2023-10-09T19:03:17.371Z,99229.31
2023-10-09T19:06:08.555Z,99230.00
2023-10-09T19:08:55.581Z,99239.56
2023-10-09T19:11:40.709Z,99248.16
2023-10-09T19:14:26.302Z,99251.84
2023-10-09T19:17:12.094Z,99244.09
2023-10-09T19:19:57.796Z,99242.22
2023-10-09T19:22:42.866Z,99247.03
2023-10-09T19:25:27.955Z,99247.97
2023-10-09T19:28:12.706Z,99245.28
2023-10-09T19:31:10.134Z,99245.16
2023-10-09T19:33:55.177Z,99244.41
2023-10-09T19:36:41.574Z,99246.66
2023-10-09T19:39:31.906Z,99246.53
2023-10-09T19:42:17.247Z,99243.22
2023-10-09T19:45:03.625Z,99243.06
2023-10-09T19:47:51.559Z,99244.69
2023-10-09T19:50:36.914Z,99244.19
2023-10-09T19:53:21.808Z,99241.53
2023-10-09T19:56:09.185Z,99237.59
2023-10-09T19:58:57.051Z,99248.22
2023-10-09T20:01:41.899Z,99242.81
2023-10-09T20:04:26.508Z,99244.09
2023-10-09T20:07:12.071Z,99243.47
2023-10-09T20:09:58.749Z,99234.91
2023-10-09T20:12:43.387Z,99239.97
2023-10-09T20:15:28.002Z,99236.19
2023-10-09T20:18:13.473Z,99238.41
2023-10-09T20:21:00.307Z,99237.31
2023-10-09T20:23:45.509Z,99243.63
2023-10-09T20:26:30.320Z,99236.69
2023-10-09T20:29:15.138Z,99242.25
2023-10-09T20:32:00.406Z,99240.66
2023-10-09T20:34:45.208Z,99247.78
2023-10-09T20:37:30.044Z,99250.31
2023-10-09T20:40:21.543Z,99248.75
2023-10-09T20:43:06.161Z,99247.00
2023-10-09T20:45:51.427Z,99246.53
2023-10-09T20:48:37.896Z,99247.16
2023-10-09T20:51:23.077Z,99245.72
2023-10-09T20:54:09.327Z,99241.28
2023-10-09T20:56:53.920Z,99249.06
2023-10-09T20:59:42.711Z,99245.25
2023-10-09T21:02:27.849Z,99244.78
2023-10-09T21:05:14.747Z,99239.53
2023-10-09T21:07:59.894Z,99242.38
2023-10-09T21:10:44.815Z,99238.44
2023-10-09T21:13:31.736Z,99238.91
2023-10-09T21:16:16.531Z,99237.81
2023-10-09T21:19:01.355Z,99235.28
2023-10-09T21:21:46.316Z,99232.75
2023-10-09T21:24:31.715Z,99231.31
2023-10-09T21:27:17.367Z,99238.59
2023-10-09T21:30:04.781Z,99234.47
2023-10-09T21:32:49.827Z,99234.94
2023-10-09T21:35:38.215Z,99244.63
2023-10-09T21:38:25.048Z,99240.63
2023-10-09T21:41:14.372Z,99240.63
2023-10-09T21:43:59.331Z,99236.19
2023-10-09T21:46:43.792Z,99235.09
2023-10-09T21:49:29.651Z,99243.31
2023-10-09T21:52:14.751Z,99228.63
2023-10-09T21:54:59.277Z,99228.94
2023-10-09T21:57:44.215Z,99228.94
2023-10-09T22:00:34.627Z,99227.38
2023-10-09T22:03:21.626Z,99234.16
2023-10-09T22:06:06.334Z,99235.72
2023-10-09T22:08:51.577Z,99234.75
2023-10-09T22:11:36.422Z,99242.16
2023-10-09T22:14:22.626Z,99236.91
2023-10-09T22:17:08.096Z,99229.28
2023-10-09T22:19:56.502Z,99230.09
2023-10-09T22:22:44.801Z,99238.38
2023-10-09T22:25:30.561Z,99233.63
2023-10-09T22:28:15.151Z,99235.34
2023-10-09T22:31:11.012Z,99239.00
2023-10-09T22:34:04.066Z,99239.31
2023-10-09T22:36:54.375Z,99236.97
2023-10-09T22:39:41.567Z,99238.09
2023-10-09T22:42:27.648Z,99239.50
2023-10-09T22:45:14.694Z,99242.66
2023-10-09T22:48:01.003Z,99240.22
2023-10-09T22:50:47.301Z,99243.88
2023-10-09T22:53:38.252Z,99255.59
2023-10-09T22:56:23.723Z,99253.19
2023-10-09T22:59:20.821Z,99249.38
2023-10-09T23:02:05.384Z,99250.94
2023-10-09T23:04:56.014Z,99255.56
2023-10-09T23:07:41.954Z,99253.03
2023-10-09T23:10:27.195Z,99252.06
2023-10-09T23:13:17.894Z,99249.09
2023-10-09T23:16:09.067Z,99257.69
2023-10-09T23:19:12.745Z,99255.19
2023-10-09T23:22:20.846Z,99253.94
2023-10-09T23:25:08.912Z,99250.78
2023-10-09T23:28:09.349Z,99254.13
2023-10-09T23:30:54.188Z,99257.09
2023-10-09T23:33:38.994Z,99254.44
2023-10-09T23:36:29.102Z,99263.75
2023-10-09T23:39:15.970Z,99260.13
2023-10-09T23:42:02.693Z,99273.91
2023-10-09T23:44:48.412Z,99277.69
2023-10-09T23:47:33.964Z,99276.44
2023-10-09T23:50:19.105Z,99275.34
2023-10-09T23:53:04.070Z,99280.88
2023-10-09T23:55:52.938Z,99274.22
2023-10-09T23:58:38.366Z,99288.81
